Time;durP1;ratioP1;P1;durP2;ratioP2;P2;SDS_P1;SDS_P2;PMS_P1;PMS_P2;Temp;Humidity;BMP_temperature;BMP_pressure;BME280_temperature;BME280_humidity;BME280_pressure;Samples;Min_cycle;Max_cycle;Signal;HPM_P1;HPM_P2
2022/04/01 00:00:23;;;;;;;32.42;16.42;;;;;;;15.43;64.55;96199.66;4440564;32;20440;-87
2022/04/01 00:02:48;;;;;;;34.03;17.23;;;;;;;15.40;64.72;96198.19;4441025;32;20077;-86
2022/04/01 00:05:14;;;;;;;30.52;18.45;;;;;;;15.37;64.99;96203.84;4440480;32;20112;-87
2022/04/01 00:07:40;;;;;;;28.15;16.75;;;;;;;15.34;65.07;96198.91;4427055;32;20111;-85
2022/04/01 00:10:07;;;;;;;31.75;17.23;;;;;;;15.38;65.01;96194.91;4455568;32;20471;-86
2022/04/01 00:12:32;;;;;;;29.83;16.30;;;;;;;15.35;65.05;96195.25;4456226;32;20753;-86
2022/04/01 00:14:58;;;;;;;32.40;17.05;;;;;;;15.35;65.02;96195.25;4455547;32;20448;-87
2022/04/01 00:17:23;;;;;;;31.58;18.17;;;;;;;15.36;64.98;96190.78;4455811;32;20081;-87
2022/04/01 00:19:49;;;;;;;34.67;17.35;;;;;;;15.35;64.87;96187.28;4455676;32;20085;-86
2022/04/01 00:22:14;;;;;;;30.33;16.95;;;;;;;15.31;64.96;96199.25;4455950;32;20101;-88
2022/04/01 00:24:40;;;;;;;231.60;22.48;;;;;;;15.29;65.21;96193.31;4455990;32;20085;-85
2022/04/01 00:27:05;;;;;;;34.85;16.67;;;;;;;15.24;65.39;96190.34;4455673;32;20107;-85
2022/04/01 00:29:31;;;;;;;30.88;17.30;;;;;;;15.28;65.31;96189.03;4441692;32;20403;-85
2022/04/01 00:32:00;;;;;;;30.25;17.77;;;;;;;15.28;65.45;96186.38;4439966;32;20078;-86
2022/04/01 00:34:31;;;;;;;28.73;15.90;;;;;;;15.33;65.27;96179.50;4440600;32;20085;-84
2022/04/01 00:36:58;;;;;;;91.87;19.83;;;;;;;15.34;65.27;96183.00;4447198;32;20093;-85
2022/04/01 00:39:25;;;;;;;32.07;17.70;;;;;;;15.36;65.23;96183.66;4442173;32;20155;-86
2022/04/01 00:41:51;;;;;;;31.10;17.93;;;;;;;15.29;65.23;96169.44;4440008;32;20129;-85
2022/04/01 00:44:19;;;;;;;30.30;17.98;;;;;;;15.27;65.49;96174.09;4440559;32;20354;-87
2022/04/01 00:46:46;;;;;;;30.95;17.42;;;;;;;15.24;65.66;96171.78;4425422;32;20115;-85
2022/04/01 00:49:12;;;;;;;31.60;18.15;;;;;;;15.28;65.69;96179.22;4440540;32;20113;-87
2022/04/01 00:51:41;;;;;;;31.08;17.67;;;;;;;15.27;65.68;96177.56;4425505;32;20168;-87
2022/04/01 00:54:08;;;;;;;35.25;16.87;;;;;;;15.28;65.70;96171.28;4440451;32;20468;-86
2022/04/01 00:56:35;;;;;;;30.55;16.12;;;;;;;15.30;65.59;96176.41;4425719;32;20136;-87
2022/04/01 00:59:02;;;;;;;55.10;17.47;;;;;;;15.33;65.51;96170.72;4440330;32;20540;-87
2022/04/01 01:01:30;;;;;;;35.28;16.37;;;;;;;15.39;65.08;96161.25;4440091;32;20185;-87
2022/04/01 01:04:07;;;;;;;26.70;15.32;;;;;;;15.30;65.36;96166.63;4439989;32;20208;-86
2022/04/01 01:06:35;;;;;;;27.17;15.05;;;;;;;15.30;65.40;96161.31;4441828;32;20090;-86
2022/04/01 01:09:01;;;;;;;25.62;15.10;;;;;;;15.28;65.50;96171.28;4454216;32;20123;-87
2022/04/01 01:11:26;;;;;;;27.23;14.55;;;;;;;15.33;65.39;96173.38;4455786;32;20089;-86
2022/04/01 01:13:53;;;;;;;31.05;14.73;;;;;;;15.32;65.38;96182.34;4428454;32;20408;-86
2022/04/01 01:16:19;;;;;;;33.17;14.55;;;;;;;15.36;64.95;96181.00;4455546;32;20141;-88
2022/04/01 01:18:46;;;;;;;24.55;13.32;;;;;;;15.25;65.45;96184.88;4455212;32;20776;-88
2022/04/01 01:21:11;;;;;;;25.37;14.73;;;;;;;15.24;65.68;96182.41;4455856;32;20105;-88
2022/04/01 01:23:37;;;;;;;30.60;15.02;;;;;;;15.21;65.90;96175.63;4440947;32;20085;-85
2022/04/01 01:26:03;;;;;;;166.15;19.37;;;;;;;15.25;65.94;96173.44;4455700;32;20116;-88
2022/04/01 01:28:29;;;;;;;27.17;13.27;;;;;;;15.19;65.84;96176.81;4439590;32;20127;-88
2022/04/01 01:30:54;;;;;;;30.15;14.25;;;;;;;15.19;66.01;96177.63;4440134;32;20094;-88
2022/04/01 01:33:21;;;;;;;57.47;14.27;;;;;;;15.16;66.02;96170.03;4439767;32;20115;-88
2022/04/01 01:35:47;;;;;;;127.32;17.17;;;;;;;15.19;66.34;96168.88;4448466;32;20124;-88
2022/04/01 01:38:16;;;;;;;25.45;13.10;;;;;;;15.21;66.09;96166.84;4455104;32;20142;-87
2022/04/01 01:40:42;;;;;;;28.73;14.02;;;;;;;15.09;66.49;96167.25;4455866;32;20506;-88
2022/04/01 01:43:07;;;;;;;24.23;14.48;;;;;;;15.04;67.07;96164.31;4455391;32;20137;-88
2022/04/01 01:45:33;;;;;;;26.50;14.07;;;;;;;15.05;67.26;96173.09;4454013;32;20085;-87
2022/04/01 01:47:58;;;;;;;25.98;13.70;;;;;;;15.08;67.43;96167.44;4455496;32;20133;-88
2022/04/01 01:55:52;;;;;;;22.35;12.73;;;;;;;15.13;67.32;96165.09;4455286;32;20111;-89
2022/04/01 01:58:18;;;;;;;24.92;13.35;;;;;;;15.16;67.05;96172.66;4455145;32;20137;-87
2022/04/01 02:00:45;;;;;;;26.48;14.80;;;;;;;15.19;66.84;96163.56;4455024;32;20115;-86
2022/04/01 02:03:11;;;;;;;24.12;13.27;;;;;;;15.19;66.63;96166.22;4445947;32;20093;-86
2022/04/01 02:05:37;;;;;;;26.55;13.15;;;;;;;15.18;66.56;96168.00;4425311;32;20115;-87
2022/04/01 02:08:05;;;;;;;24.52;12.90;;;;;;;15.22;66.31;96168.50;4439700;32;20113;-87
2022/04/01 02:10:30;;;;;;;24.90;13.30;;;;;;;15.19;66.45;96174.97;4439320;32;20480;-85
2022/04/01 02:12:56;;;;;;;36.78;14.65;;;;;;;15.20;66.51;96162.53;4439941;32;20142;-86
2022/04/01 02:15:21;;;;;;;24.65;13.80;;;;;;;15.24;66.21;96166.47;4439111;32;20105;-85
2022/04/01 02:17:47;;;;;;;25.02;12.88;;;;;;;15.25;66.22;96157.53;4439581;32;20475;-87
2022/04/01 02:20:13;;;;;;;33.60;13.50;;;;;;;15.25;66.09;96163.66;4439165;32;20462;-88
2022/04/01 02:22:39;;;;;;;72.32;14.50;;;;;;;15.26;66.03;96161.81;4445812;32;20419;-87
2022/04/01 02:25:07;;;;;;;134.93;17.05;;;;;;;15.24;66.10;96154.06;4454342;32;20111;-87
2022/04/01 02:27:34;;;;;;;40.25;13.85;;;;;;;15.19;65.99;96145.81;4454548;32;20094;-87
2022/04/01 02:30:00;;;;;;;123.60;16.60;;;;;;;15.05;66.79;96150.06;4440793;32;20105;-87
2022/04/01 02:32:26;;;;;;;24.10;11.95;;;;;;;14.91;67.30;96158.75;4454676;32;20115;-88
2022/04/01 02:34:51;;;;;;;20.37;11.00;;;;;;;14.98;67.38;96158.91;4454959;32;20357;-87
2022/04/01 02:37:20;;;;;;;23.10;11.30;;;;;;;15.03;67.52;96152.06;4454180;32;20150;-87
2022/04/01 02:39:46;;;;;;;43.03;14.10;;;;;;;15.07;67.48;96150.72;4441152;32;20109;-88
2022/04/01 02:42:11;;;;;;;59.83;14.05;;;;;;;15.13;67.18;96133.25;4448866;32;20088;-88
2022/04/01 02:44:37;;;;;;;28.90;13.55;;;;;;;15.13;66.65;96133.25;4439420;32;20451;-88
2022/04/01 02:47:03;;;;;;;21.02;10.80;;;;;;;15.05;66.92;96136.00;4438627;32;20137;-88
2022/04/01 02:49:29;;;;;;;20.80;10.43;;;;;;;15.04;67.15;96127.19;4439190;32;20142;-87
2022/04/01 02:51:54;;;;;;;21.02;10.25;;;;;;;15.07;67.10;96131.34;4424827;32;20093;-86
2022/04/01 02:54:22;;;;;;;18.95;10.43;;;;;;;15.05;67.04;96131.50;4439356;32;20107;-87
2022/04/01 02:56:48;;;;;;;18.65;9.80;;;;;;;15.07;67.03;96134.78;4424858;32;20098;-87
2022/04/01 02:59:13;;;;;;;17.48;8.93;;;;;;;15.11;66.80;96133.44;4439277;32;20112;-84
2022/04/01 03:01:40;;;;;;;163.15;15.35;;;;;;;15.11;66.72;96132.62;4415572;32;20440;-85
2022/04/01 03:04:10;;;;;;;26.73;10.88;;;;;;;15.00;66.83;96128.53;4454137;32;20169;-85
2022/04/01 03:06:39;;;;;;;23.50;10.50;;;;;;;15.10;66.59;96129.16;4453969;32;20105;-86
2022/04/01 03:09:08;;;;;;;17.83;8.95;;;;;;;15.11;66.46;96136.09;4453776;32;20123;-87
2022/04/01 03:11:36;;;;;;;21.80;9.18;;;;;;;15.14;66.33;96133.09;4454272;32;20089;-86
2022/04/01 03:14:02;;;;;;;16.20;8.75;;;;;;;15.17;66.15;96131.09;4425546;32;20161;-86
2022/04/01 03:16:28;;;;;;;16.60;8.65;;;;;;;15.17;66.13;96121.31;4452559;32;20104;-86
2022/04/01 03:18:57;;;;;;;20.52;10.65;;;;;;;15.21;66.02;96119.13;4456029;32;20478;-86
2022/04/01 03:21:23;;;;;;;18.62;9.32;;;;;;;15.20;65.72;96120.97;4452855;32;20097;-85
2022/04/01 03:23:49;;;;;;;25.08;10.20;;;;;;;15.18;65.84;96120.28;4426573;32;20202;-85
2022/04/01 03:26:14;;;;;;;19.73;10.10;;;;;;;15.21;65.68;96121.78;4440921;32;20101;-86
2022/04/01 03:28:40;;;;;;;17.50;9.27;;;;;;;15.19;65.73;96124.59;4440348;32;20361;-85
2022/04/01 03:31:06;;;;;;;18.23;8.80;;;;;;;15.20;65.84;96143.97;4441314;32;20110;-85
2022/04/01 03:33:35;;;;;;;15.35;8.20;;;;;;;15.21;65.96;96150.94;4440707;32;20093;-85
2022/04/01 03:36:01;;;;;;;15.23;8.20;;;;;;;15.20;65.86;96152.78;4427046;32;20510;-84
2022/04/01 03:38:27;;;;;;;16.77;8.77;;;;;;;15.09;66.12;96145.22;4440203;32;20090;-84
2022/04/01 03:40:53;;;;;;;200.07;15.30;;;;;;;15.27;65.38;96121.06;4441544;32;20175;-85
2022/04/01 03:43:21;;;;;;;20.00;8.18;;;;;;;15.16;65.33;96114.34;4455914;32;20162;-87
2022/04/01 03:45:48;;;;;;;;;;;;;;;15.17;65.32;96116.00;4456612;32;20094;-86
2022/04/01 03:48:34;;;;;;;18.50;8.63;;;;;;;15.20;65.41;96133.38;4441974;32;19993;-90
2022/04/01 03:51:00;;;;;;;17.17;8.45;;;;;;;15.21;65.50;96135.84;4455959;32;20500;-89
2022/04/01 03:53:30;;;;;;;18.77;9.80;;;;;;;15.17;65.67;96131.91;4456076;32;20085;-88
2022/04/01 03:55:57;;;;;;;18.52;9.20;;;;;;;15.18;65.73;96130.06;4456057;32;20148;-88
2022/04/01 03:58:34;;;;;;;17.92;8.70;;;;;;;15.20;65.67;96130.72;4439557;32;20105;-86
2022/04/01 04:01:02;;;;;;;19.17;9.52;;;;;;;15.21;65.59;96132.38;4440677;32;20081;-86
2022/04/01 04:03:29;;;;;;;15.00;8.02;;;;;;;15.23;65.51;96131.19;4440687;32;20086;-89
2022/04/01 04:05:55;;;;;;;18.27;9.55;;;;;;;15.28;65.28;96133.31;4440437;32;20423;-88
2022/04/01 04:08:22;;;;;;;16.90;9.05;;;;;;;15.27;65.31;96131.66;4455716;32;20101;-88
2022/04/01 04:10:49;;;;;;;21.27;8.40;;;;;;;15.27;65.30;96129.00;4455469;32;20119;-88
2022/04/01 04:13:16;;;;;;;15.93;8.50;;;;;;;15.28;65.21;96117.41;4456280;32;20138;-88
2022/04/01 04:16:08;;;;;;;16.80;8.85;;;;;;;15.28;65.25;96123.53;4455616;32;20089;-88
2022/04/01 04:18:48;;;;;;;19.10;9.32;;;;;;;15.30;65.16;96129.47;4442460;32;20093;-88
2022/04/01 04:21:27;;;;;;;18.35;9.50;;;;;;;15.29;65.15;96132.31;4455705;32;20089;-86
2022/04/01 04:23:57;;;;;;;57.40;10.30;;;;;;;15.28;65.24;96130.66;4428271;32;20077;-86
2022/04/01 04:26:32;;;;;;;73.25;11.88;;;;;;;15.38;64.73;96115.31;4438997;32;20530;-86
2022/04/01 04:29:04;;;;;;;69.80;11.12;;;;;;;15.31;64.76;96101.13;4440627;32;20154;-86
2022/04/01 04:31:31;;;;;;;23.30;9.88;;;;;;;15.23;64.76;96096.72;4426157;32;20105;-86
2022/04/01 04:33:57;;;;;;;425.70;27.27;;;;;;;15.08;65.48;96095.84;4440732;32;20139;-86
2022/04/01 04:36:36;;;;;;;22.98;9.05;;;;;;;14.85;66.16;96109.91;4439504;32;20101;-86
2022/04/01 04:39:05;;;;;;;174.55;15.50;;;;;;;15.00;65.60;96104.69;4440737;32;20101;-85
2022/04/01 04:41:32;;;;;;;19.10;9.07;;;;;;;15.06;65.39;96096.00;4425864;32;20119;-86
2022/04/01 04:43:58;;;;;;;27.42;9.27;;;;;;;15.03;65.57;96103.53;4440522;32;20108;-85
2022/04/01 04:46:26;;;;;;;49.83;10.60;;;;;;;14.95;65.98;96115.00;4425679;32;20113;-87
2022/04/01 04:48:54;;;;;;;199.73;17.42;;;;;;;15.05;65.98;96109.47;4440562;32;20093;-85
2022/04/01 04:51:23;;;;;;;17.08;8.57;;;;;;;14.97;66.11;96115.66;4439852;32;20089;-85
2022/04/01 04:53:49;;;;;;;17.98;9.15;;;;;;;15.01;66.08;96122.25;4426732;32;20424;-87
2022/04/01 04:56:15;;;;;;;17.42;8.15;;;;;;;15.04;66.15;96118.41;4440034;32;20164;-84
2022/04/01 04:58:43;;;;;;;16.67;8.85;;;;;;;15.07;66.21;96124.19;4426461;32;20129;-84
2022/04/01 05:01:21;;;;;;;17.70;8.65;;;;;;;15.13;66.10;96133.25;4440811;32;20221;-84
2022/04/01 05:04:12;;;;;;;22.90;10.00;;;;;;;15.16;66.02;96134.72;4455541;32;20112;-85
2022/04/01 05:06:51;;;;;;;27.20;8.20;;;;;;;15.18;65.92;96127.41;4441058;32;20712;-85
2022/04/01 05:09:38;;;;;;;17.98;8.95;;;;;;;15.21;65.51;96119.94;4429131;32;20531;-86
2022/04/01 05:12:12;;;;;;;19.55;9.18;;;;;;;15.19;65.51;96121.94;4455562;32;20537;-86
2022/04/01 05:14:49;;;;;;;17.05;8.80;;;;;;;15.22;65.47;96123.41;4456191;32;20124;-86
2022/04/01 05:17:24;;;;;;;31.42;9.13;;;;;;;15.22;65.37;96121.59;4441195;32;20547;-87
2022/04/01 05:19:58;;;;;;;18.35;8.27;;;;;;;15.19;65.53;96129.09;4442205;32;20497;-86
2022/04/01 05:22:31;;;;;;;14.73;7.85;;;;;;;15.17;65.64;96139.88;4440830;32;20230;-86
2022/04/01 05:25:01;;;;;;;16.85;8.82;;;;;;;15.25;65.44;96137.13;4442154;32;20081;-86
2022/04/01 05:27:30;;;;;;;15.77;7.65;;;;;;;15.30;65.40;96141.94;4454929;32;20093;-87
2022/04/01 05:30:16;;;;;;;14.57;6.87;;;;;;;15.30;65.47;96145.41;4441945;32;20380;-88
2022/04/01 05:33:00;;;;;;;14.98;6.78;;;;;;;15.37;65.32;96139.38;4454892;32;20114;-87
2022/04/01 05:35:51;;;;;;;12.18;5.95;;;;;;;15.38;65.17;96130.41;4455684;32;20104;-85
2022/04/01 05:38:19;;;;;;;12.18;5.75;;;;;;;15.38;65.12;96133.91;4455126;32;20149;-86
2022/04/01 05:40:45;;;;;;;12.40;5.62;;;;;;;15.42;64.87;96135.19;4455625;32;20081;-86
2022/04/01 05:43:13;;;;;;;13.65;6.25;;;;;;;15.46;64.83;96138.31;4440084;32;20477;-85
2022/04/01 05:45:38;;;;;;;;;;;;;;;15.52;64.64;96125.12;4441960;32;20073;-87
2022/04/01 05:48:09;;;;;;;15.18;7.50;;;;;;;15.56;64.02;96124.78;4434273;32;19999;-87
2022/04/01 05:50:35;;;;;;;19.98;7.70;;;;;;;15.44;64.34;96127.88;4447691;32;20093;-86
2022/04/01 05:53:01;;;;;;;14.85;7.65;;;;;;;15.43;64.33;96126.22;4453961;32;20140;-86
2022/04/01 05:55:27;;;;;;;17.52;7.00;;;;;;;15.44;64.50;96121.75;4439372;32;20337;-86
2022/04/01 05:57:53;;;;;;;41.75;9.13;;;;;;;15.42;64.67;96127.22;4440016;32;20132;-86
2022/04/01 06:00:19;;;;;;;42.78;7.87;;;;;;;15.49;64.54;96127.31;4454089;32;20847;-85
2022/04/01 06:03:23;;;;;;;17.08;7.77;;;;;;;15.46;64.42;96122.37;4441057;32;98574;-87
2022/04/01 06:06:25;;;;;;;13.88;6.78;;;;;;;15.46;64.41;96125.84;4439221;32;20479;-86
2022/04/01 06:08:58;;;;;;;15.82;7.57;;;;;;;15.47;64.47;96127.53;4425812;32;20387;-89
2022/04/01 06:11:37;;;;;;;14.68;7.28;;;;;;;15.44;64.67;96132.34;4425725;32;20215;-87
2022/04/01 06:14:06;;;;;;;14.35;7.00;;;;;;;15.33;64.79;96138.91;4425791;32;20089;-85
2022/04/01 06:16:53;;;;;;;13.15;6.55;;;;;;;15.43;64.73;96138.66;4425333;32;20093;-86
2022/04/01 06:19:29;;;;;;;15.18;7.68;;;;;;;15.42;64.89;96131.72;4440616;32;20085;-85
2022/04/01 06:21:57;;;;;;;14.48;6.75;;;;;;;15.48;64.58;96128.34;4455380;32;20081;-86
2022/04/01 06:25:13;;;;;;;15.00;7.28;;;;;;;15.48;64.53;96125.69;4454905;32;20092;-86
2022/04/01 06:27:46;;;;;;;16.50;7.15;;;;;;;15.53;64.32;96126.78;4454529;32;20247;-86
2022/04/01 06:30:14;;;;;;;14.25;7.37;;;;;;;15.46;64.50;96127.69;4454122;32;20109;-86
2022/04/01 06:32:56;;;;;;;12.82;6.10;;;;;;;15.29;65.03;96140.25;4454521;32;20101;-86
2022/04/01 06:35:44;;;;;;;12.68;5.60;;;;;;;15.21;64.38;96133.19;4440914;32;20097;-85
2022/04/01 06:38:13;;;;;;;12.05;5.20;;;;;;;14.98;65.22;96137.69;4454704;32;20470;-86
2022/04/01 06:40:50;;;;;;;11.88;5.28;;;;;;;14.73;66.02;96132.53;4454497;32;20456;-88
2022/04/01 06:43:17;;;;;;;11.05;4.87;;;;;;;14.71;66.31;96138.00;4439697;32;20105;-86
2022/04/01 06:45:42;;;;;;;11.82;4.95;;;;;;;14.81;65.77;96140.44;4439323;32;20165;-86
2022/04/01 06:48:08;;;;;;;11.90;5.07;;;;;;;14.87;65.20;96141.56;4452233;32;20085;-87
2022/04/01 06:50:34;;;;;;;11.77;5.12;;;;;;;14.87;65.07;96139.75;4455781;32;20151;-83
2022/04/01 06:52:59;;;;;;;12.50;5.47;;;;;;;14.81;65.48;96148.38;4456256;32;20115;-84
2022/04/01 06:55:25;;;;;;;11.30;5.30;;;;;;;14.82;65.28;96149.22;4456313;32;20097;-85
2022/04/01 06:57:50;;;;;;;12.05;5.25;;;;;;;14.70;65.78;96156.75;4455904;32;20555;-83
2022/04/01 07:00:16;;;;;;;11.32;4.80;;;;;;;14.86;65.45;96156.62;4442546;32;20163;-86
2022/04/01 07:02:43;;;;;;;12.20;5.47;;;;;;;14.89;65.54;96150.16;4455768;32;20089;-87
2022/04/01 07:05:12;;;;;;;11.65;5.25;;;;;;;14.97;65.46;96147.47;4429304;32;20081;-86
2022/04/01 07:07:40;;;;;;;10.55;4.57;;;;;;;15.08;64.90;96151.53;4454399;32;20158;-88
2022/04/01 07:10:07;;;;;;;;;;;;;;;15.05;65.00;96151.91;4440996;32;20113;-86
2022/04/01 07:12:32;;;;;;;11.12;4.50;;;;;;;15.19;64.51;96155.59;4439900;32;19988;-86
2022/04/01 07:15:01;;;;;;;12.02;4.35;;;;;;;15.20;64.44;96154.59;4441210;32;20135;-83
2022/04/01 07:17:26;;;;;;;36.00;4.97;;;;;;;15.26;64.38;96154.72;4438066;32;20209;-88
2022/04/01 07:19:52;;;;;;;10.75;3.97;;;;;;;15.26;64.21;96144.09;4454474;32;20113;-85
2022/04/01 07:22:18;;;;;;;9.13;3.28;;;;;;;15.23;64.47;96140.97;4441144;32;20088;-85
2022/04/01 07:24:43;;;;;;;9.00;2.70;;;;;;;15.28;64.16;96139.44;4455328;32;20411;-87
2022/04/01 07:27:11;;;;;;;8.60;2.90;;;;;;;15.17;64.17;96147.00;4443742;32;20187;-87
2022/04/01 07:29:36;;;;;;;7.57;2.55;;;;;;;15.11;64.53;96151.19;4452583;32;20120;-88
2022/04/01 07:34:48;;;;;;;8.15;2.50;;;;;;;15.06;63.69;96141.09;4452311;32;20103;-85
2022/04/01 07:37:13;;;;;;;7.15;2.45;;;;;;;15.03;64.32;96138.81;4453825;32;20173;-83
2022/04/01 07:39:39;;;;;;;6.85;2.35;;;;;;;15.07;64.44;96140.09;4452916;32;20125;-86
2022/04/01 07:42:05;;;;;;;7.30;2.65;;;;;;;15.19;64.47;96145.81;4439383;32;20415;-86
2022/04/01 07:44:31;;;;;;;5.75;1.60;;;;;;;15.26;64.30;96143.25;4438662;32;20414;-86
2022/04/01 07:46:57;;;;;;;6.57;2.22;;;;;;;15.19;63.17;96145.00;4456131;32;20084;-85
2022/04/01 07:49:22;;;;;;;8.57;2.53;;;;;;;15.23;62.97;96152.41;4452151;32;20158;-85
2022/04/01 07:51:47;;;;;;;7.55;2.05;;;;;;;15.25;63.26;96153.06;4452784;32;20129;-89
2022/04/01 07:54:13;;;;;;;6.50;2.12;;;;;;;15.33;63.64;96150.31;4452074;32;20350;-89
2022/04/01 07:56:40;;;;;;;7.35;2.40;;;;;;;15.29;63.77;96145.56;4455381;32;20454;-89
2022/04/01 07:59:11;;;;;;;6.10;1.90;;;;;;;15.41;63.13;96148.62;4440302;32;20113;-92
2022/04/01 08:01:36;;;;;;;5.12;1.70;;;;;;;15.45;63.16;96144.59;4440130;32;20105;-93
2022/04/01 08:04:03;;;;;;;4.53;1.30;;;;;;;15.51;62.82;96152.69;4449258;32;20116;-93
2022/04/01 08:06:30;;;;;;;8.13;2.25;;;;;;;15.31;62.74;96162.13;4439700;32;20115;-94
2022/04/01 08:08:58;;;;;;;3.22;1.10;;;;;;;15.51;62.05;96159.78;4453849;32;20101;-88
2022/04/01 08:11:24;;;;;;;3.40;1.00;;;;;;;15.38;61.62;96163.06;4435531;32;20127;-93
2022/04/01 08:13:50;;;;;;;2.70;1.00;;;;;;;15.11;61.87;96169.75;4437487;32;20444;-91
2022/04/01 08:16:15;;;;;;;4.12;1.30;;;;;;;15.04;62.11;96177.56;4455334;32;20081;-90
2022/04/01 08:18:41;;;;;;;3.37;1.15;;;;;;;15.16;62.18;96177.16;4441437;32;20166;-89
2022/04/01 08:21:06;;;;;;;3.90;1.50;;;;;;;15.22;62.10;96177.28;4455121;32;20093;-91
2022/04/01 08:23:34;;;;;;;4.45;1.33;;;;;;;15.20;61.58;96181.09;4441205;32;20527;-90
2022/04/01 08:26:02;;;;;;;3.90;1.48;;;;;;;15.18;61.54;96175.16;4454616;32;20093;-91
2022/04/01 08:28:27;;;;;;;5.18;1.95;;;;;;;15.24;61.31;96182.41;4461273;32;20109;-91
2022/04/01 08:30:53;;;;;;;5.70;1.90;;;;;;;15.05;61.97;96186.38;4455098;32;20100;-81
2022/04/01 08:33:20;;;;;;;5.78;1.73;;;;;;;15.18;61.76;96175.97;4427953;32;20109;-82
2022/04/01 08:35:46;;;;;;;5.30;1.70;;;;;;;15.19;61.09;96187.41;4454013;32;20089;-80
2022/04/01 08:38:12;;;;;;;5.70;2.15;;;;;;;15.18;61.20;96186.56;4454381;32;20104;-80
2022/04/01 08:40:37;;;;;;;7.40;1.95;;;;;;;15.20;60.99;96191.72;4450807;32;20492;-80
2022/04/01 08:43:03;;;;;;;4.07;1.40;;;;;;;14.89;61.68;96200.50;4447004;32;20448;-80
2022/04/01 08:45:31;;;;;;;7.57;2.03;;;;;;;14.86;61.77;96199.06;4448760;32;20101;-81
2022/04/01 08:47:57;;;;;;;4.07;1.70;;;;;;;14.97;61.48;96205.78;4433636;32;20137;-81
2022/04/01 08:50:22;;;;;;;5.53;1.70;;;;;;;15.00;61.50;96208.06;4441687;32;20356;-81
2022/04/01 08:52:48;;;;;;;4.70;1.25;;;;;;;14.92;61.43;96208.94;4440735;32;20162;-82
2022/04/01 08:55:13;;;;;;;4.47;1.40;;;;;;;14.95;61.13;96213.09;4440308;32;20146;-82
2022/04/01 08:57:41;;;;;;;4.97;1.42;;;;;;;14.41;62.47;96223.53;4440733;32;20109;-85
2022/04/01 09:00:15;;;;;;;3.03;1.40;;;;;;;14.40;62.42;96225.38;4455046;32;20456;-83
2022/04/01 09:02:45;;;;;;;5.62;1.55;;;;;;;14.31;63.01;96221.09;4455566;32;20196;-86
2022/04/01 09:05:11;;;;;;;4.07;1.40;;;;;;;14.38;63.36;96219.44;4432947;32;20107;-83
2022/04/01 09:07:36;;;;;;;4.35;1.40;;;;;;;14.53;63.28;96219.56;4430409;32;20121;-78
2022/04/01 09:10:07;;;;;;;4.75;1.50;;;;;;;14.53;62.51;96223.03;4439796;32;20102;-78
2022/04/01 09:12:34;;;;;;;5.15;1.25;;;;;;;14.65;62.25;96231.44;4452822;32;20116;-79
2022/04/01 09:14:59;;;;;;;6.43;1.50;;;;;;;14.30;62.83;96228.22;4439135;32;20100;-79
2022/04/01 09:17:42;;;;;;;6.97;1.58;;;;;;;14.61;62.26;96226.66;4454681;32;20161;-79
2022/04/01 09:20:09;;;;;;;6.12;1.60;;;;;;;14.64;61.18;96226.31;4440884;32;20123;-79
2022/04/01 09:22:36;;;;;;;9.07;2.00;;;;;;;14.59;61.08;96226.84;4454794;32;20120;-79
2022/04/01 09:25:02;;;;;;;5.25;1.60;;;;;;;14.67;61.41;96221.50;4454859;32;20076;-78
2022/04/01 09:27:40;;;;;;;7.75;1.77;;;;;;;14.82;60.70;96226.91;4451529;32;20112;-80
2022/04/01 09:30:06;;;;;;;5.15;1.87;;;;;;;14.55;60.89;96223.66;4455294;32;20088;-78
2022/04/01 09:32:47;;;;;;;7.82;1.85;;;;;;;15.00;59.88;96224.00;4441112;32;20179;-79
2022/04/01 09:35:14;;;;;;;4.53;1.50;;;;;;;15.14;58.96;96219.75;4455030;32;20086;-79
2022/04/01 09:37:44;;;;;;;6.93;1.80;;;;;;;15.00;59.53;96233.78;4455280;32;20115;-78
2022/04/01 09:40:14;;;;;;;5.05;1.55;;;;;;;15.31;59.71;96223.13;4455177;32;20096;-78
2022/04/01 09:42:46;;;;;;;4.95;1.73;;;;;;;15.47;58.14;96225.69;4441236;32;20156;-79
2022/04/01 09:45:18;;;;;;;4.70;1.40;;;;;;;15.30;58.54;96232.94;4433254;32;20069;-78
2022/04/01 09:47:45;;;;;;;5.18;1.75;;;;;;;15.31;57.96;96233.75;4455241;32;20811;-78
2022/04/01 09:50:15;;;;;;;6.55;1.70;;;;;;;14.98;58.15;96241.91;4455312;32;20150;-79
2022/04/01 09:52:42;;;;;;;6.12;1.80;;;;;;;14.68;59.39;96244.37;4426494;32;20136;-79
2022/04/01 09:55:08;;;;;;;5.10;1.63;;;;;;;14.96;58.41;96240.44;4446749;32;20084;-78
2022/04/01 09:57:34;;;;;;;3.72;1.37;;;;;;;14.82;58.74;96240.16;4438527;32;20204;-78
2022/04/01 10:00:00;;;;;;;4.32;1.40;;;;;;;14.78;58.62;96243.34;4455403;32;20211;-79
2022/04/01 10:02:26;;;;;;;3.85;1.33;;;;;;;14.83;59.21;96247.09;4455460;32;20089;-79
2022/04/01 10:04:54;;;;;;;6.68;1.40;;;;;;;14.91;59.03;96240.94;4431278;32;20639;-80
2022/04/01 10:07:22;;;;;;;5.32;1.50;;;;;;;14.82;58.48;96249.94;4441667;32;20132;-82
2022/04/01 10:09:49;;;;;;;3.72;1.25;;;;;;;14.83;58.23;96243.63;4441092;32;20131;-83
2022/04/01 10:12:18;;;;;;;4.80;1.20;;;;;;;14.99;57.91;96245.38;4440760;32;20119;-83
2022/04/01 10:14:43;;;;;;;4.72;1.10;;;;;;;14.67;57.93;96241.88;4441000;32;20097;-82
2022/04/01 10:17:15;;;;;;;21.10;3.05;;;;;;;14.56;58.39;96250.97;4440558;32;20121;-88
2022/04/01 10:19:47;;;;;;;4.53;1.40;;;;;;;14.32;59.03;96258.00;4427952;32;20108;-88
2022/04/01 10:22:16;;;;;;;5.82;1.58;;;;;;;14.11;59.92;96249.78;4454501;32;20443;-86
2022/04/01 10:24:54;;;;;;;6.35;1.87;;;;;;;13.91;60.95;96249.31;4453172;32;20086;-85
2022/04/01 10:27:26;;;;;;;7.03;2.00;;;;;;;14.05;60.29;96256.56;4453035;32;20140;-92
2022/04/01 10:29:55;;;;;;;6.55;2.28;;;;;;;13.79;60.43;96272.66;4454325;32;20112;-90
2022/04/01 10:32:26;;;;;;;7.07;2.53;;;;;;;13.91;60.48;96265.22;4437667;32;20119;-86
2022/04/01 10:34:55;;;;;;;6.50;2.40;;;;;;;13.82;61.05;96274.13;4441524;32;20117;-82
2022/04/01 10:37:25;;;;;;;6.85;2.30;;;;;;;14.01;60.07;96273.78;4439201;32;20101;-82
2022/04/01 10:39:53;;;;;;;6.90;2.47;;;;;;;14.10;60.13;96277.25;4412715;32;20487;-86
2022/04/01 10:42:20;;;;;;;7.40;2.60;;;;;;;13.90;60.37;96279.41;4437599;32;20093;-87
2022/04/01 10:44:49;;;;;;;8.93;2.60;;;;;;;13.93;60.17;96282.56;4412419;32;20093;-90
2022/04/01 10:47:15;;;;;;;6.72;2.40;;;;;;;14.00;60.23;96273.94;4439027;32;20186;-87
2022/04/01 10:52:25;;;;;;;6.87;2.42;;;;;;;13.84;59.10;96288.03;4454177;32;20111;-90
2022/04/01 10:55:06;;;;;;;6.87;2.40;;;;;;;13.31;59.80;96283.03;4454359;32;20081;-89
2022/04/01 10:57:34;;;;;;;7.90;2.40;;;;;;;13.58;59.42;96281.06;4454071;32;20120;-87
2022/04/01 11:00:04;;;;;;;7.30;2.30;;;;;;;13.73;60.25;96287.38;4428551;32;20119;-89
2022/04/01 11:02:29;;;;;;;8.57;2.47;;;;;;;13.85;59.68;96287.00;4439125;32;20468;-87
2022/04/01 11:04:55;;;;;;;6.87;2.25;;;;;;;13.94;58.94;96289.50;4425754;32;20098;-88
2022/04/01 11:07:23;;;;;;;7.75;2.45;;;;;;;13.87;58.35;96285.88;4424479;32;20097;-85
2022/04/01 11:09:58;;;;;;;8.75;2.58;;;;;;;13.69;58.92;96290.50;4438542;32;20113;-86
2022/04/01 11:12:42;;;;;;;8.73;2.75;;;;;;;13.62;59.40;96297.41;4424437;32;20065;-87
2022/04/01 11:15:12;;;;;;;9.43;2.92;;;;;;;13.86;58.40;96297.44;4424771;32;20078;-85
2022/04/01 11:17:37;;;;;;;8.70;2.67;;;;;;;14.05;57.43;96298.94;4411646;32;20174;-84
2022/04/01 11:20:09;;;;;;;9.93;3.10;;;;;;;13.73;57.50;96302.41;4438467;32;20092;-84
2022/04/01 11:22:43;;;;;;;9.93;3.17;;;;;;;13.67;57.41;96303.87;4446259;32;20119;-86
2022/04/01 11:25:32;;;;;;;8.68;3.15;;;;;;;13.61;57.28;96306.38;4453636;32;20088;-84
2022/04/01 11:28:02;;;;;;;9.15;3.40;;;;;;;13.59;57.20;96308.34;4441754;32;20089;-81
2022/04/01 11:30:32;;;;;;;9.15;3.25;;;;;;;13.69;57.58;96312.47;4439974;32;20109;-81
2022/04/01 11:33:01;;;;;;;9.40;3.30;;;;;;;13.24;57.35;96305.75;4453869;32;20096;-80
2022/04/01 11:35:30;;;;;;;9.43;3.30;;;;;;;13.18;58.57;96317.00;4455395;32;20141;-82
2022/04/01 11:37:56;;;;;;;9.55;3.45;;;;;;;13.26;59.84;96305.63;4442001;32;20162;-86
2022/04/01 11:40:32;;;;;;;8.55;3.25;;;;;;;13.49;59.40;96306.69;4440233;32;20497;-93
2022/04/01 11:43:03;;;;;;;9.20;3.53;;;;;;;13.56;58.53;96302.41;4455387;32;20073;-95
2022/04/01 11:45:31;;;;;;;9.85;3.20;;;;;;;13.65;58.79;96307.69;4456121;32;20069;-93